Terminal Aerodrome Forecast
Issued by NWS

Home | Current Version | Previous Version | Graphics & Text | Print | Product List | Glossary On
Versions: 1 2 3 4 5 6 7 8 9 10 11 12 13 14 15 16 17 18 19 20 21 22 23
313
FTUS43 KLOT 231120
TAFDPA
TAF
KDPA 231120Z 2312/2412 18004KT P6SM FEW250
     FM231500 19011KT P6SM FEW050 BKN250
     FM240000 17007KT P6SM BKN250
     FM241100 18008KT P6SM VCSH BKN080
      TEMPO 2411/2412 3SM TSRA OVC030CB=

USA.gov is the U.S. government's official web portal to all federal, state and local government web resources and services.